New Audacity — 3EWE9 — position and weather

sailwx.info

Track history (hours):
 
Tides and Currents Weather Stations Pressure Air Temp Water Temp Dewpoint Dewpoint Depression Visibility Wind Speed Wind Dir Waves Ship Positions

New Audacity

Last reported at 2017-Nov-16 13:31 UTC. Time now 2017-Nov-17 23:19 UTC.
Position N 34°41' E 134°40'.

Length 120 m; draft 5.5 m.

Type: Cargo ship. MMSI: 352566000.

Date/timePositionNaut miles runAvg speedWind from/ knotsBaromVisibWave heightAir tempDewpointWater temp
2017-Nov-16 13:31N 34°41' E 134°40'011.9
2017-Nov-16 13:29N 34°41' E 134°40'  
2017-Nov-12 22:00N 24°23' E 118°46'611.1
2017-Nov-12 21:27N 24°19' E 118°41'511.5
2017-Nov-12 21:00N 24°16' E 118°36'611.9
2017-Nov-12 20:30N 24°12' E 118°31'611.9
2017-Nov-12 20:00N 24°09' E 118°26'611.9
2017-Nov-12 19:31N 24°05' E 118°21'612.0
2017-Nov-12 19:00N 24°01' E 118°16'1811.7
2017-Nov-12 17:30N 23°50' E 118°01'17610.3
2017-Nov-12 00:26N 22°30' E 115°11'511.0
2017-Nov-12 00:01N 22°28' E 115°06'510.5
2017-Nov-11 23:30N 22°26' E 115°01'510.6
2017-Nov-11 23:00N 22°24' E 114°55'510.6
2017-Nov-11 22:30N 22°22' E 114°50'510.6
2017-Nov-11 22:00N 22°21' E 114°45'510.3
2017-Nov-11 21:31N 22°18' E 114°40'5 9.9
2017-Nov-11 21:00N 22°15' E 114°36'5 9.4
2017-Nov-11 20:30N 22°13' E 114°31'5 9.1
2017-Nov-11 20:01N 22°10' E 114°27'5 9.2
2017-Nov-11 19:30N 22°08' E 114°23'4 8.7
2017-Nov-11 19:00N 22°07' E 114°18'11 9.2
2017-Nov-11 17:50N 22°13' E 114°09'510.0
2017-Nov-11 17:19N 22°18' E 114°06'411.4
2017-Nov-11 16:55N 22°21' E 114°04'512.1
2017-Nov-11 16:30N 22°21' E 113°58'510.9
2017-Nov-11 16:00N 22°24' E 113°53'3 6.8
2017-Nov-11 15:30N 22°27' E 113°54'1 1.8
2017-Nov-11 14:58N 22°28' E 113°54'0 0.1
2017-Nov-11 14:28N 22°28' E 113°54'0 0.1
2017-Nov-11 14:00N 22°28' E 113°54'0 0.0
2017-Nov-11 13:28N 22°28' E 113°54'0 0.0
2017-Nov-11 12:55N 22°28' E 113°54'0 0.0
2017-Nov-11 12:25N 22°28' E 113°54'0 0.0
2017-Nov-11 11:58N 22°28' E 113°54'0 0.0
2017-Nov-11 11:28N 22°28' E 113°54'0 0.0
2017-Nov-11 10:58N 22°28' E 113°54'0 0.0
2017-Nov-11 10:28N 22°28' E 113°54'0 0.0
2017-Nov-11 09:58N 22°28' E 113°54'0 0.0
2017-Nov-11 09:25N 22°28' E 113°54'0 0.0
2017-Nov-11 08:58N 22°28' E 113°54'0 0.0
2017-Nov-11 08:28N 22°28' E 113°54'0 0.0
2017-Nov-11 07:58N 22°28' E 113°54'0 0.0
2017-Nov-11 07:28N 22°28' E 113°54'0 0.0
2017-Nov-11 06:58N 22°28' E 113°54'0 0.0
2017-Nov-11 06:28N 22°28' E 113°54'0 0.0
2017-Nov-11 05:58N 22°28' E 113°54'0 0.0
2017-Nov-11 05:28N 22°28' E 113°54'0 0.0
2017-Nov-11 04:58N 22°28' E 113°54'0 0.0
2017-Nov-11 04:28N 22°28' E 113°54'0 0.0
2017-Nov-11 03:58N 22°28' E 113°54'0 0.0
2017-Nov-11 03:28N 22°28' E 113°54'0 0.0
2017-Nov-11 02:58N 22°28' E 113°54'0 0.0
2017-Nov-11 02:28N 22°28' E 113°54'0 0.0
2017-Nov-11 01:58N 22°28' E 113°54'0 0.0
2017-Nov-11 01:28N 22°28' E 113°54'0 1.1
2017-Nov-11 01:00N 22°28' E 113°54'4 7.5
2017-Nov-11 00:30N 22°24' E 113°54'510.1
2017-Nov-11 00:00N 22°21' E 113°58'510.5
2017-Nov-10 23:30N 22°22' E 114°04'5 0.1
2017-Nov-09 12:31N 22°17' E 114°05'0 6.7
2017-Nov-09 12:30N 22°17' E 114°05'8 4.4
2017-Nov-09 10:41N 22°09' E 114°04'0 1.5
2017-Nov-09 10:29N 22°09' E 114°04'510.8
2017-Nov-09 10:00N 22°06' E 113°59'611.5
2017-Nov-09 09:30N 22°06' E 113°53'5 9.3
2017-Nov-09 09:00N 22°08' E 113°48'611.1
2017-Nov-09 08:30N 22°14' E 113°48'713.1
2017-Nov-09 08:00N 22°20' E 113°48'612.8
2017-Nov-09 07:30N 22°26' E 113°45'612.7
2017-Nov-09 07:00N 22°32' E 113°44'612.2
2017-Nov-09 06:30N 22°38' E 113°42'611.4
2017-Nov-09 06:00N 22°44' E 113°40'5 9.2
2017-Nov-09 05:30N 22°48' E 113°37'4 7.5
2017-Nov-09 05:00N 22°50' E 113°35'4 7.5
2017-Nov-09 04:30N 22°54' E 113°34'5 9.4
2017-Nov-09 04:00N 22°58' E 113°32'4 8.8
2017-Nov-09 03:30N 23°03' E 113°31'0 0.8
2017-Nov-09 03:00N 23°03' E 113°31'0 0.0
2017-Nov-09 02:30N 23°03' E 113°31'0 0.0
2017-Nov-09 01:45N 23°03' E 113°31'0 0.0
2017-Nov-09 01:24N 23°03' E 113°31'0 0.0
2017-Nov-09 01:00N 23°03' E 113°31'0 0.0
2017-Nov-09 00:30N 23°03' E 113°31'0 0.0
2017-Nov-09 00:00N 23°03' E 113°31'0 0.0
2017-Nov-08 23:30N 23°03' E 113°31'0 0.0
2017-Nov-08 23:00N 23°03' E 113°31'0 0.0
2017-Nov-08 22:27N 23°03' E 113°31'0 0.0
2017-Nov-08 22:00N 23°03' E 113°31'0 0.0
2017-Nov-08 21:30N 23°03' E 113°31'0 0.0
2017-Nov-08 20:57N 23°03' E 113°31'0 0.0
2017-Nov-08 20:27N 23°03' E 113°31'0 0.0
2017-Nov-08 20:00N 23°03' E 113°31'0 0.0
2017-Nov-08 19:27N 23°03' E 113°31'0 0.0
2017-Nov-08 19:00N 23°03' E 113°31'0 0.0
2017-Nov-08 18:30N 23°03' E 113°31'0 0.0
2017-Nov-08 17:57N 23°03' E 113°31'0 0.0
2017-Nov-08 17:27N 23°03' E 113°31'0 0.1
2017-Nov-08 16:57N 23°03' E 113°30'0 0.1
2017-Nov-08 16:27N 23°03' E 113°31'0 0.0
2017-Nov-08 15:57N 23°03' E 113°31'0 0.0
2017-Nov-08 15:30N 23°03' E 113°31'0 0.0
2017-Nov-08 15:00N 23°03' E 113°31'0 0.0
2017-Nov-08 14:27N 23°03' E 113°31'0 0.0
2017-Nov-08 13:57N 23°03' E 113°31'0 0.0
2017-Nov-08 13:30N 23°03' E 113°31'0 0.0
2017-Nov-08 13:00N 23°03' E 113°31'0 0.0
2017-Nov-08 12:15N 23°03' E 113°31'0 0.0
2017-Nov-08 11:51N 23°03' E 113°31'0 0.0
2017-Nov-08 11:30N 23°03' E 113°31'0 0.0
2017-Nov-08 11:00N 23°03' E 113°31'0 0.0
2017-Nov-08 10:21N 23°03' E 113°31'0 0.0
2017-Nov-08 09:51N 23°03' E 113°31'0 0.0
2017-Nov-08 09:27N 23°03' E 113°31'0 0.0
2017-Nov-08 08:51N 23°03' E 113°31'0 0.0
2017-Nov-08 08:30N 23°03' E 113°31'0 0.0
2017-Nov-08 07:57N 23°03' E 113°31'0 0.0
2017-Nov-08 07:30N 23°03' E 113°31'0 0.0
2017-Nov-08 07:00N 23°03' E 113°31'0 0.0
2017-Nov-08 06:30N 23°03' E 113°31'0 0.0
2017-Nov-08 06:00N 23°03' E 113°31'0 0.0
2017-Nov-08 05:30N 23°03' E 113°31'0 0.0
2017-Nov-08 05:00N 23°03' E 113°31'2 3.3
2017-Nov-08 04:30N 23°02' E 113°31'5 9.8
2017-Nov-08 04:00N 22°57' E 113°33'5 9.3
2017-Nov-08 03:30N 22°52' E 113°34'611.5
2017-Nov-08 03:00N 22°47' E 113°37'611.1
2017-Nov-08 02:30N 22°43' E 113°41'612.5
2017-Nov-08 02:00N 22°37' E 113°42'612.7
2017-Nov-08 01:30N 22°31' E 113°45'612.2
2017-Nov-08 01:00N 22°25' E 113°46'612.0
2017-Nov-08 00:30N 22°19' E 113°48'611.3
2017-Nov-08 00:00N 22°13' E 113°48'5 9.8
2017-Nov-07 23:30N 22°08' E 113°48'1 1.2
2017-Nov-07 23:00N 22°08' E 113°48'3 5.2
2017-Nov-07 22:30N 22°05' E 113°49'3 5.1
2017-Nov-07 22:00N 22°05' E 113°52'610.6
2017-Nov-07 21:27N 22°07' E 113°58'2010.8
2017-Nov-07 19:38N 22°08' E 114°19'110.9
2017-Nov-07 19:30N 22°08' E 114°20'611.5
2017-Nov-07 19:00N 22°07' E 114°27'611.5
2017-Nov-07 18:27N 22°06' E 114°33'511.9
2017-Nov-07 18:00N 22°07' E 114°39'612.1
2017-Nov-07 17:30N 22°09' E 114°45'612.3
2017-Nov-07 17:00N 22°11' E 114°51'612.2
2017-Nov-07 16:30N 22°13' E 114°57'612.6
2017-Nov-07 16:00N 22°16' E 115°04'612.5
2017-Nov-07 15:30N 22°18' E 115°10'612.6
2017-Nov-07 15:00N 22°20' E 115°17'713.2
2017-Nov-07 14:28N 22°22' E 115°24'18511.9
2017-Nov-06 23:00N 23°56' E 118°17'611.7
2017-Nov-06 22:30N 23°58' E 118°23'612.2
2017-Nov-06 22:00N 24°00' E 118°28'612.6
2017-Nov-06 21:30N 24°03' E 118°35'612.4
2017-Nov-06 21:00N 24°06' E 118°41'  
Track history (hours):
 
Tides and Currents Weather Stations Pressure Air Temp Water Temp Dewpoint Dewpoint Depression Visibility Wind Speed Wind Dir Waves Ship Positions

New Audacity

Last reported at 2017-Nov-16 13:31 UTC. Time now 2017-Nov-17 23:19 UTC.
Position N 34°41' E 134°40'.

Length 120 m; draft 5.5 m.

Type: Cargo ship. MMSI: 352566000.

Date/timePositionNaut miles runAvg speedWind from/ knotsBaromVisibWave heightAir tempDewpointWater temp
2017-Nov-16 13:31N 34°41' E 134°40'011.9
2017-Nov-16 13:29N 34°41' E 134°40'  
2017-Nov-12 22:00N 24°23' E 118°46'611.1
2017-Nov-12 21:27N 24°19' E 118°41'511.5
2017-Nov-12 21:00N 24°16' E 118°36'611.9
2017-Nov-12 20:30N 24°12' E 118°31'611.9
2017-Nov-12 20:00N 24°09' E 118°26'611.9
2017-Nov-12 19:31N 24°05' E 118°21'612.0
2017-Nov-12 19:00N 24°01' E 118°16'1811.7
2017-Nov-12 17:30N 23°50' E 118°01'17610.3
2017-Nov-12 00:26N 22°30' E 115°11'511.0
2017-Nov-12 00:01N 22°28' E 115°06'510.5
2017-Nov-11 23:30N 22°26' E 115°01'510.6
2017-Nov-11 23:00N 22°24' E 114°55'510.6
2017-Nov-11 22:30N 22°22' E 114°50'510.6
2017-Nov-11 22:00N 22°21' E 114°45'510.3
2017-Nov-11 21:31N 22°18' E 114°40'5 9.9
2017-Nov-11 21:00N 22°15' E 114°36'5 9.4
2017-Nov-11 20:30N 22°13' E 114°31'5 9.1
2017-Nov-11 20:01N 22°10' E 114°27'5 9.2
2017-Nov-11 19:30N 22°08' E 114°23'4 8.7
2017-Nov-11 19:00N 22°07' E 114°18'11 9.2
2017-Nov-11 17:50N 22°13' E 114°09'510.0
2017-Nov-11 17:19N 22°18' E 114°06'411.4
2017-Nov-11 16:55N 22°21' E 114°04'512.1
2017-Nov-11 16:30N 22°21' E 113°58'510.9
2017-Nov-11 16:00N 22°24' E 113°53'3 6.8
2017-Nov-11 15:30N 22°27' E 113°54'1 1.8
2017-Nov-11 14:58N 22°28' E 113°54'0 0.1
2017-Nov-11 14:28N 22°28' E 113°54'0 0.1
2017-Nov-11 14:00N 22°28' E 113°54'0 0.0
2017-Nov-11 13:28N 22°28' E 113°54'0 0.0
2017-Nov-11 12:55N 22°28' E 113°54'0 0.0
2017-Nov-11 12:25N 22°28' E 113°54'0 0.0
2017-Nov-11 11:58N 22°28' E 113°54'0 0.0
2017-Nov-11 11:28N 22°28' E 113°54'0 0.0
2017-Nov-11 10:58N 22°28' E 113°54'0 0.0
2017-Nov-11 10:28N 22°28' E 113°54'0 0.0
2017-Nov-11 09:58N 22°28' E 113°54'0 0.0
2017-Nov-11 09:25N 22°28' E 113°54'0 0.0
2017-Nov-11 08:58N 22°28' E 113°54'0 0.0
2017-Nov-11 08:28N 22°28' E 113°54'0 0.0
2017-Nov-11 07:58N 22°28' E 113°54'0 0.0
2017-Nov-11 07:28N 22°28' E 113°54'0 0.0
2017-Nov-11 06:58N 22°28' E 113°54'0 0.0
2017-Nov-11 06:28N 22°28' E 113°54'0 0.0
2017-Nov-11 05:58N 22°28' E 113°54'0 0.0
2017-Nov-11 05:28N 22°28' E 113°54'0 0.0
2017-Nov-11 04:58N 22°28' E 113°54'0 0.0
2017-Nov-11 04:28N 22°28' E 113°54'0 0.0
2017-Nov-11 03:58N 22°28' E 113°54'0 0.0
2017-Nov-11 03:28N 22°28' E 113°54'0 0.0
2017-Nov-11 02:58N 22°28' E 113°54'0 0.0
2017-Nov-11 02:28N 22°28' E 113°54'0 0.0
2017-Nov-11 01:58N 22°28' E 113°54'0 0.0
2017-Nov-11 01:28N 22°28' E 113°54'0 1.1
2017-Nov-11 01:00N 22°28' E 113°54'4 7.5
2017-Nov-11 00:30N 22°24' E 113°54'510.1
2017-Nov-11 00:00N 22°21' E 113°58'510.5
2017-Nov-10 23:30N 22°22' E 114°04'5 0.1
2017-Nov-09 12:31N 22°17' E 114°05'0 6.7
2017-Nov-09 12:30N 22°17' E 114°05'8 4.4
2017-Nov-09 10:41N 22°09' E 114°04'0 1.5
2017-Nov-09 10:29N 22°09' E 114°04'510.8
2017-Nov-09 10:00N 22°06' E 113°59'611.5
2017-Nov-09 09:30N 22°06' E 113°53'5 9.3
2017-Nov-09 09:00N 22°08' E 113°48'611.1
2017-Nov-09 08:30N 22°14' E 113°48'713.1
2017-Nov-09 08:00N 22°20' E 113°48'612.8
2017-Nov-09 07:30N 22°26' E 113°45'612.7
2017-Nov-09 07:00N 22°32' E 113°44'612.2
2017-Nov-09 06:30N 22°38' E 113°42'611.4
2017-Nov-09 06:00N 22°44' E 113°40'5 9.2
2017-Nov-09 05:30N 22°48' E 113°37'4 7.5
2017-Nov-09 05:00N 22°50' E 113°35'4 7.5
2017-Nov-09 04:30N 22°54' E 113°34'5 9.4
2017-Nov-09 04:00N 22°58' E 113°32'4 8.8
2017-Nov-09 03:30N 23°03' E 113°31'0 0.8
2017-Nov-09 03:00N 23°03' E 113°31'0 0.0
2017-Nov-09 02:30N 23°03' E 113°31'0 0.0
2017-Nov-09 01:45N 23°03' E 113°31'0 0.0
2017-Nov-09 01:24N 23°03' E 113°31'0 0.0
2017-Nov-09 01:00N 23°03' E 113°31'0 0.0
2017-Nov-09 00:30N 23°03' E 113°31'0 0.0
2017-Nov-09 00:00N 23°03' E 113°31'0 0.0
2017-Nov-08 23:30N 23°03' E 113°31'0 0.0
2017-Nov-08 23:00N 23°03' E 113°31'0 0.0
2017-Nov-08 22:27N 23°03' E 113°31'0 0.0
2017-Nov-08 22:00N 23°03' E 113°31'0 0.0
2017-Nov-08 21:30N 23°03' E 113°31'0 0.0
2017-Nov-08 20:57N 23°03' E 113°31'0 0.0
2017-Nov-08 20:27N 23°03' E 113°31'0 0.0
2017-Nov-08 20:00N 23°03' E 113°31'0 0.0
2017-Nov-08 19:27N 23°03' E 113°31'0 0.0
2017-Nov-08 19:00N 23°03' E 113°31'0 0.0
2017-Nov-08 18:30N 23°03' E 113°31'0 0.0
2017-Nov-08 17:57N 23°03' E 113°31'0 0.0
2017-Nov-08 17:27N 23°03' E 113°31'0 0.1
2017-Nov-08 16:57N 23°03' E 113°30'0 0.1
2017-Nov-08 16:27N 23°03' E 113°31'0 0.0
2017-Nov-08 15:57N 23°03' E 113°31'0 0.0
2017-Nov-08 15:30N 23°03' E 113°31'0 0.0
2017-Nov-08 15:00N 23°03' E 113°31'0 0.0
2017-Nov-08 14:27N 23°03' E 113°31'0 0.0
2017-Nov-08 13:57N 23°03' E 113°31'0 0.0
2017-Nov-08 13:30N 23°03' E 113°31'0 0.0
2017-Nov-08 13:00N 23°03' E 113°31'0 0.0
2017-Nov-08 12:15N 23°03' E 113°31'0 0.0
2017-Nov-08 11:51N 23°03' E 113°31'0 0.0
2017-Nov-08 11:30N 23°03' E 113°31'0 0.0
2017-Nov-08 11:00N 23°03' E 113°31'0 0.0
2017-Nov-08 10:21N 23°03' E 113°31'0 0.0
2017-Nov-08 09:51N 23°03' E 113°31'0 0.0
2017-Nov-08 09:27N 23°03' E 113°31'0 0.0
2017-Nov-08 08:51N 23°03' E 113°31'0 0.0
2017-Nov-08 08:30N 23°03' E 113°31'0 0.0
2017-Nov-08 07:57N 23°03' E 113°31'0 0.0
2017-Nov-08 07:30N 23°03' E 113°31'0 0.0
2017-Nov-08 07:00N 23°03' E 113°31'0 0.0
2017-Nov-08 06:30N 23°03' E 113°31'0 0.0
2017-Nov-08 06:00N 23°03' E 113°31'0 0.0
2017-Nov-08 05:30N 23°03' E 113°31'0 0.0
2017-Nov-08 05:00N 23°03' E 113°31'2 3.3
2017-Nov-08 04:30N 23°02' E 113°31'5 9.8
2017-Nov-08 04:00N 22°57' E 113°33'5 9.3
2017-Nov-08 03:30N 22°52' E 113°34'611.5
2017-Nov-08 03:00N 22°47' E 113°37'611.1
2017-Nov-08 02:30N 22°43' E 113°41'612.5
2017-Nov-08 02:00N 22°37' E 113°42'612.7
2017-Nov-08 01:30N 22°31' E 113°45'612.2
2017-Nov-08 01:00N 22°25' E 113°46'612.0
2017-Nov-08 00:30N 22°19' E 113°48'611.3
2017-Nov-08 00:00N 22°13' E 113°48'5 9.8
2017-Nov-07 23:30N 22°08' E 113°48'1 1.2
2017-Nov-07 23:00N 22°08' E 113°48'3 5.2
2017-Nov-07 22:30N 22°05' E 113°49'3 5.1
2017-Nov-07 22:00N 22°05' E 113°52'610.6
2017-Nov-07 21:27N 22°07' E 113°58'2010.8
2017-Nov-07 19:38N 22°08' E 114°19'110.9
2017-Nov-07 19:30N 22°08' E 114°20'611.5
2017-Nov-07 19:00N 22°07' E 114°27'611.5
2017-Nov-07 18:27N 22°06' E 114°33'511.9
2017-Nov-07 18:00N 22°07' E 114°39'612.1
2017-Nov-07 17:30N 22°09' E 114°45'612.3
2017-Nov-07 17:00N 22°11' E 114°51'612.2
2017-Nov-07 16:30N 22°13' E 114°57'612.6
2017-Nov-07 16:00N 22°16' E 115°04'612.5
2017-Nov-07 15:30N 22°18' E 115°10'612.6
2017-Nov-07 15:00N 22°20' E 115°17'713.2
2017-Nov-07 14:28N 22°22' E 115°24'18511.9
2017-Nov-06 23:00N 23°56' E 118°17'611.7
2017-Nov-06 22:30N 23°58' E 118°23'612.2
2017-Nov-06 22:00N 24°00' E 118°28'612.6
2017-Nov-06 21:30N 24°03' E 118°35'612.4
2017-Nov-06 21:00N 24°06' E 118°41'  

Dump ship's entire track history